Time;durP1;ratioP1;P1;durP2;ratioP2;P2;SDS_P1;SDS_P2;PMS_P1;PMS_P2;Temp;Humidity;BMP_temperature;BMP_pressure;BME280_temperature;BME280_humidity;BME280_pressure;Samples;Min_cycle;Max_cycle;Signal;HPM_P1;HPM_P2
2023/01/10 01:56:33;;;;;;;14.30;13.80;;;6.70;99.90;;;;;;5374971;23;20742;-74
2023/01/10 01:59:06;;;;;;;14.13;13.67;;;6.80;99.90;;;;;;4948802;29;20464;-75
2023/01/10 02:01:35;;;;;;;14.00;13.50;;;6.80;99.90;;;;;;4948460;29;20459;-74
2023/01/10 02:04:10;;;;;;;12.67;12.27;;;6.80;99.90;;;;;;4948284;29;20441;-75
2023/01/10 02:06:37;;;;;;;12.20;11.80;;;6.80;99.90;;;;;;4938025;29;20437;-74
2023/01/10 02:09:11;;;;;;;12.33;11.93;;;6.90;99.90;;;;;;4939056;29;20445;-74
2023/01/10 02:11:39;;;;;;;12.10;11.70;;;7.00;99.90;;;;;;4945814;29;20463;-74
2023/01/10 02:14:08;;;;;;;14.43;13.93;;;7.00;99.90;;;;;;4948332;29;20914;-74
2023/01/10 02:16:34;;;;;;;13.10;12.60;;;7.10;99.90;;;;;;4937870;29;20485;-75
2023/01/10 02:19:01;;;;;;;13.10;12.60;;;7.20;99.90;;;;;;4939082;29;20452;-75
2023/01/10 02:22:13;;;;;;;13.40;12.90;;;7.10;99.90;;;;;;4938908;29;20484;-75
2023/01/10 02:25:08;;;;;;;12.77;12.37;;;7.00;99.90;;;;;;4945670;29;21333;-75
2023/01/10 02:27:51;;;;;;;14.63;14.13;;;7.00;99.90;;;;;;4948448;29;20457;-75
2023/01/10 02:30:51;;;;;;;17.07;16.47;;;6.90;99.90;;;;;;4949762;29;20484;-74
2023/01/10 02:33:25;;;;;;;18.47;17.80;;;6.80;99.90;;;;;;4949522;29;20945;-74
2023/01/10 02:36:08;;;;;;;20.53;19.70;;;6.60;99.90;;;;;;4949633;29;20841;-74
2023/01/10 02:38:52;;;;;;;20.20;19.40;;;6.60;99.90;;;;;;4949677;29;20569;-75
2023/01/10 02:41:27;;;;;;;20.20;19.40;;;6.60;99.90;;;;;;4950063;29;20452;-73
2023/01/10 02:43:59;;;;;;;20.97;20.17;;;6.50;99.90;;;;;;4950043;29;20490;-72
2023/01/10 02:46:30;;;;;;;22.20;21.10;;;6.50;99.90;;;;;;4949420;29;20456;-72
2023/01/10 02:48:58;;;;;;;21.80;20.90;;;6.50;99.90;;;;;;4949319;29;20457;-74
2023/01/10 02:51:27;;;;;;;22.83;21.83;;;6.50;99.90;;;;;;4949420;29;20475;-74
2023/01/10 02:53:59;;;;;;;23.13;21.93;;;6.40;99.90;;;;;;4949179;29;20452;-73
2023/01/10 02:56:51;;;;;;;24.00;23.00;;;6.40;99.90;;;;;;4948973;29;20531;-73
2023/01/10 02:59:42;;;;;;;25.40;24.30;;;6.30;99.90;;;;;;4949131;29;20445;-73
2023/01/10 03:02:17;;;;;;;25.87;24.70;;;6.30;99.90;;;;;;4949091;29;20445;-75
2023/01/10 03:04:53;;;;;;;25.60;24.43;;;6.30;99.90;;;;;;4949262;28;20463;-74
2023/01/10 03:07:26;;;;;;;27.97;26.57;;;6.30;99.90;;;;;;4952770;29;20532;-74
2023/01/10 03:09:57;;;;;;;26.70;25.50;;;6.30;99.90;;;;;;4952922;29;20946;-75
2023/01/10 03:12:31;;;;;;;28.57;27.07;;;6.30;99.90;;;;;;4952860;29;20452;-75
2023/01/10 03:15:00;;;;;;;27.77;26.47;;;6.30;99.90;;;;;;4952744;29;20483;-74
2023/01/10 03:17:29;;;;;;;28.60;27.10;;;6.30;99.90;;;;;;4952656;29;20448;-74
2023/01/10 03:20:01;;;;;;;29.87;28.47;;;6.20;99.90;;;;;;4952632;29;20484;-75
2023/01/10 03:22:30;;;;;;;28.53;27.13;;;6.20;99.90;;;;;;4952590;29;20479;-75
2023/01/10 03:24:59;;;;;;;28.83;27.47;;;6.30;99.90;;;;;;4952568;29;20448;-74
2023/01/10 03:27:34;;;;;;;29.67;27.87;;;6.20;99.90;;;;;;4952581;29;20460;-74
2023/01/10 03:30:06;;;;;;;29.80;28.30;;;6.20;99.90;;;;;;4952600;29;20918;-75
2023/01/10 03:32:33;;;;;;;29.40;27.80;;;6.20;99.90;;;;;;4952749;29;20456;-74
2023/01/10 03:35:03;;;;;;;29.50;27.90;;;6.20;99.90;;;;;;4952373;29;20463;-75
2023/01/10 03:37:36;;;;;;;31.27;29.67;;;6.20;99.90;;;;;;4952184;29;20463;-75
2023/01/10 03:40:09;;;;;;;31.57;29.87;;;6.20;99.90;;;;;;4952581;29;20836;-75
2023/01/10 03:45:33;;;;;;;30.27;28.40;;;6.30;99.90;;;;;;4952812;29;20441;-75
2023/01/10 03:48:03;;;;;;;29.73;28.33;;;6.30;99.90;;;;;;4952265;29;20973;-75
2023/01/10 03:50:32;;;;;;;30.43;28.93;;;6.20;99.90;;;;;;4951645;29;20457;-74
2023/01/10 03:52:59;;;;;;;30.10;28.50;;;6.20;99.90;;;;;;4952074;29;20913;-75
2023/01/10 03:55:28;;;;;;;31.63;30.00;;;6.20;99.90;;;;;;4951828;29;20492;-75
2023/01/10 03:57:55;;;;;;;30.10;28.43;;;6.30;99.90;;;;;;4951640;29;20523;-74
2023/01/10 04:00:23;;;;;;;30.10;28.40;;;6.30;99.90;;;;;;4952174;29;20519;-74
2023/01/10 04:02:49;;;;;;;30.30;28.67;;;6.30;99.90;;;;;;4952331;29;20932;-74
2023/01/10 04:05:16;;;;;;;29.00;27.50;;;6.20;99.90;;;;;;4951759;29;20545;-75
2023/01/10 04:07:44;;;;;;;28.70;27.30;;;6.30;99.90;;;;;;4951490;29;20741;-74
2023/01/10 04:10:11;;;;;;;29.37;27.73;;;6.20;99.90;;;;;;4951520;29;20574;-75
2023/01/10 04:12:38;;;;;;;29.20;27.50;;;6.30;99.90;;;;;;4951719;29;20461;-74
2023/01/10 04:15:06;;;;;;;30.07;28.00;;;6.30;99.90;;;;;;4951957;29;20536;-75
2023/01/10 04:17:32;;;;;;;28.97;27.33;;;6.20;99.90;;;;;;4950638;28;20492;-75
2023/01/10 04:19:59;;;;;;;30.50;29.00;;;6.10;99.90;;;;;;4951335;29;20467;-76
2023/01/10 04:22:26;;;;;;;28.93;27.30;;;6.00;99.90;;;;;;4951433;29;20452;-75
2023/01/10 04:24:54;;;;;;;30.70;29.10;;;6.00;99.90;;;;;;4951624;29;20472;-77
2023/01/10 04:27:21;;;;;;;28.73;27.07;;;5.90;99.90;;;;;;4951801;29;20456;-75
2023/01/10 04:29:47;;;;;;;28.60;27.30;;;5.90;99.90;;;;;;4951222;29;20807;-74
2023/01/10 04:32:14;;;;;;;29.37;27.80;;;5.90;99.90;;;;;;4951148;29;20460;-74
2023/01/10 04:34:41;;;;;;;28.83;27.47;;;5.90;99.90;;;;;;4951027;29;20465;-74
2023/01/10 04:37:07;;;;;;;31.47;29.37;;;5.80;99.90;;;;;;4951458;29;20485;-75
2023/01/10 04:39:34;;;;;;;29.67;27.97;;;5.90;99.90;;;;;;4951547;29;20460;-75
2023/01/10 04:42:02;;;;;;;30.23;28.20;;;5.90;99.90;;;;;;4951217;29;20467;-75
2023/01/10 04:44:29;;;;;;;29.17;27.67;;;5.90;99.90;;;;;;4951086;29;21054;-74
2023/01/10 04:46:55;;;;;;;29.37;27.33;;;5.80;99.90;;;;;;4950977;29;20452;-75
2023/01/10 04:49:22;;;;;;;28.13;26.73;;;5.80;99.90;;;;;;4951311;29;20464;-75
2023/01/10 04:51:49;;;;;;;28.03;26.73;;;5.70;99.90;;;;;;4951581;29;20460;-75
2023/01/10 04:54:19;;;;;;;29.23;27.67;;;5.70;99.90;;;;;;4950729;29;20994;-75
2023/01/10 04:56:46;;;;;;;28.73;27.33;;;5.70;99.90;;;;;;4950938;29;20493;-74
2023/01/10 04:59:14;;;;;;;29.67;27.90;;;5.70;99.90;;;;;;4950783;29;20701;-74
2023/01/10 05:01:41;;;;;;;31.27;29.50;;;5.60;99.90;;;;;;4950902;29;20452;-75
2023/01/10 05:04:08;;;;;;;29.10;27.13;;;5.60;99.90;;;;;;4951061;29;20452;-76
2023/01/10 05:06:35;;;;;;;28.10;26.80;;;5.60;99.90;;;;;;4951209;29;20453;-76
2023/01/10 05:09:03;;;;;;;28.60;27.00;;;5.50;99.90;;;;;;4950972;29;20523;-76
2023/01/10 05:11:29;;;;;;;29.07;27.47;;;5.50;99.90;;;;;;4950951;29;20759;-76
2023/01/10 05:13:56;;;;;;;31.00;29.10;;;5.50;99.90;;;;;;4950716;29;20518;-76
2023/01/10 05:16:24;;;;;;;29.37;27.73;;;5.50;99.90;;;;;;4950607;29;20489;-76
2023/01/10 05:18:51;;;;;;;31.30;29.80;;;5.40;99.90;;;;;;4951174;29;20540;-76
2023/01/10 05:21:18;;;;;;;27.87;26.60;;;5.40;99.90;;;;;;4950995;29;20452;-77
2023/01/10 05:23:44;;;;;;;28.70;26.87;;;5.30;99.90;;;;;;4950691;29;20836;-76
2023/01/10 05:26:13;;;;;;;29.60;27.57;;;5.40;99.90;;;;;;4950578;29;20452;-76
2023/01/10 05:28:40;;;;;;;29.77;27.77;;;5.40;99.90;;;;;;4949647;28;20946;-76
2023/01/10 05:31:08;;;;;;;28.60;26.90;;;5.50;99.90;;;;;;4950683;29;20460;-75
2023/01/10 05:33:36;;;;;;;27.33;25.67;;;5.60;99.90;;;;;;4950598;29;20534;-76
2023/01/10 05:36:04;;;;;;;27.03;25.50;;;5.70;99.90;;;;;;4950284;29;20488;-76
2023/01/10 05:38:31;;;;;;;28.43;26.50;;;5.70;99.90;;;;;;4950123;29;20945;-76
2023/01/10 05:40:59;;;;;;;26.23;24.90;;;5.80;99.90;;;;;;4949784;29;20461;-76
2023/01/10 05:43:27;;;;;;;22.70;21.50;;;5.90;99.90;;;;;;4950195;29;20452;-76
2023/01/10 05:45:53;;;;;;;24.37;22.40;;;5.90;99.90;;;;;;4950214;29;20507;-76
2023/01/10 05:48:20;;;;;;;23.10;21.90;;;6.00;99.90;;;;;;4950516;29;20479;-76
2023/01/10 05:50:49;;;;;;;21.53;19.87;;;6.00;99.90;;;;;;4951306;29;20457;-76
2023/01/10 05:53:16;;;;;;;20.80;19.10;;;6.10;99.90;;;;;;4951198;29;20472;-76
2023/01/10 05:55:43;;;;;;;18.97;17.50;;;6.20;99.90;;;;;;4950841;29;20836;-76
2023/01/10 05:58:10;;;;;;;19.57;18.47;;;6.20;99.90;;;;;;4951189;29;20989;-76
2023/01/10 06:00:38;;;;;;;19.77;18.17;;;6.30;99.90;;;;;;4951391;29;20456;-74
2023/01/10 06:03:05;;;;;;;17.77;16.27;;;6.30;99.90;;;;;;4951251;29;20463;-76
2023/01/10 06:05:32;;;;;;;17.10;16.10;;;6.40;99.90;;;;;;4951029;29;20456;-76
2023/01/10 06:08:00;;;;;;;15.30;14.03;;;6.50;99.90;;;;;;4950338;29;20456;-74
2023/01/10 06:10:26;;;;;;;15.37;14.23;;;6.50;99.90;;;;;;4950746;29;20457;-75
2023/01/10 06:12:53;;;;;;;14.87;13.87;;;6.50;99.90;;;;;;4951023;29;20455;-76
2023/01/10 06:15:20;;;;;;;15.73;14.50;;;6.50;99.90;;;;;;4951400;29;20461;-76
2023/01/10 06:17:46;;;;;;;16.40;14.87;;;6.60;99.90;;;;;;4950835;29;20496;-76
2023/01/10 06:20:13;;;;;;;14.23;13.17;;;6.50;99.90;;;;;;4950947;29;20456;-76
2023/01/10 06:22:41;;;;;;;13.40;12.63;;;6.60;99.90;;;;;;4951127;29;20483;-75
2023/01/10 06:25:10;;;;;;;13.87;12.70;;;6.60;99.90;;;;;;4951170;29;20480;-76
2023/01/10 06:27:40;;;;;;;12.87;11.87;;;6.70;99.90;;;;;;4951201;29;20460;-76
2023/01/10 06:30:07;;;;;;;12.90;11.97;;;6.60;99.90;;;;;;4951198;29;20969;-76
2023/01/10 06:32:34;;;;;;;12.17;11.50;;;6.70;99.90;;;;;;4951414;29;20456;-75
2023/01/10 06:35:01;;;;;;;11.23;10.40;;;6.70;99.90;;;;;;4950887;29;20950;-75
2023/01/10 06:37:27;;;;;;;13.53;12.47;;;6.70;99.90;;;;;;4950768;29;20496;-75
2023/01/10 06:39:54;;;;;;;12.63;11.73;;;6.70;99.90;;;;;;4951798;28;20456;-75
2023/01/10 06:42:22;;;;;;;12.73;11.50;;;6.70;99.90;;;;;;4954925;29;20460;-75
2023/01/10 06:44:49;;;;;;;12.37;11.60;;;6.80;99.90;;;;;;4955074;29;20525;-75
2023/01/10 06:47:15;;;;;;;13.13;12.30;;;6.80;99.90;;;;;;4954586;29;20891;-75
2023/01/10 06:49:42;;;;;;;12.70;11.90;;;6.70;99.90;;;;;;4954662;29;20452;-75
2023/01/10 06:52:09;;;;;;;13.00;12.20;;;6.70;99.90;;;;;;4954637;29;20448;-74
2023/01/10 06:54:35;;;;;;;11.93;11.23;;;6.70;99.90;;;;;;4954654;29;20998;-75
2023/01/10 06:57:02;;;;;;;12.23;11.53;;;6.80;99.90;;;;;;4954515;29;20855;-75
2023/01/10 06:59:30;;;;;;;13.70;12.97;;;6.80;99.90;;;;;;4954485;29;20520;-75
2023/01/10 07:01:57;;;;;;;12.80;12.03;;;6.70;99.90;;;;;;4954781;29;20621;-75
2023/01/10 07:04:25;;;;;;;12.87;12.10;;;6.70;99.90;;;;;;4954628;29;20467;-76
2023/01/10 07:06:52;;;;;;;13.20;12.20;;;6.80;99.90;;;;;;4954791;29;20830;-75
2023/01/10 07:09:18;;;;;;;14.00;12.97;;;6.80;99.90;;;;;;4954693;29;20456;-75
2023/01/10 07:11:45;;;;;;;12.80;12.00;;;6.80;99.90;;;;;;4954508;29;20453;-76
2023/01/10 07:14:12;;;;;;;13.43;12.43;;;6.80;99.90;;;;;;4954518;29;20460;-76
2023/01/10 07:16:40;;;;;;;14.63;13.53;;;6.80;99.90;;;;;;4954413;29;20813;-76
2023/01/10 07:19:06;;;;;;;13.60;12.57;;;6.70;99.90;;;;;;4954495;29;20969;-76
2023/01/10 07:21:33;;;;;;;13.53;12.63;;;6.70;99.90;;;;;;4954463;29;20456;-76
2023/01/10 07:24:00;;;;;;;13.03;12.23;;;6.70;99.90;;;;;;4954136;29;20449;-75
2023/01/10 07:26:26;;;;;;;13.37;12.53;;;6.80;99.90;;;;;;4954112;29;20449;-76
2023/01/10 07:28:53;;;;;;;13.07;12.37;;;6.70;99.90;;;;;;4954260;29;20452;-75
2023/01/10 07:31:22;;;;;;;12.00;11.30;;;6.70;99.90;;;;;;4954136;29;20456;-75
2023/01/10 07:33:50;;;;;;;13.50;12.50;;;6.80;99.90;;;;;;4954407;29;20455;-76
2023/01/10 07:36:18;;;;;;;12.73;11.83;;;6.90;99.90;;;;;;4954000;29;20459;-76
2023/01/10 07:38:44;;;;;;;14.63;13.63;;;6.90;99.90;;;;;;4953794;29;20484;-76
2023/01/10 07:41:11;;;;;;;13.73;12.70;;;6.90;99.90;;;;;;4953813;29;20456;-75
2023/01/10 07:43:38;;;;;;;13.00;12.10;;;7.00;99.90;;;;;;4954034;29;20440;-76
2023/01/10 07:46:08;;;;;;;14.00;13.20;;;7.00;99.90;;;;;;4954208;29;20449;-76
2023/01/10 07:48:35;;;;;;;13.47;12.53;;;6.90;99.90;;;;;;4954223;29;20448;-75
2023/01/10 07:51:04;;;;;;;13.50;12.40;;;7.00;99.90;;;;;;4953308;28;20824;-76
2023/01/10 07:53:30;;;;;;;12.13;11.43;;;6.90;99.90;;;;;;4953328;29;20460;-78
2023/01/10 07:55:59;;;;;;;13.60;12.50;;;7.00;99.90;;;;;;4953343;29;21064;-78
2023/01/10 07:58:26;;;;;;;14.00;13.10;;;7.00;99.90;;;;;;4953572;29;21080;-76
2023/01/10 08:00:57;;;;;;;15.50;14.03;;;7.10;99.90;;;;;;4953807;29;20452;-76
2023/01/10 08:03:24;;;;;;;12.77;11.73;;;7.10;99.90;;;;;;4953510;29;20452;-76
2023/01/10 08:05:57;;;;;;;13.80;12.57;;;7.30;99.90;;;;;;4953838;29;20457;-76
2023/01/10 08:08:25;;;;;;;14.00;12.80;;;7.30;99.90;;;;;;4953602;29;20453;-76
2023/01/10 08:10:51;;;;;;;12.03;11.33;;;7.40;99.90;;;;;;4953802;29;20448;-76
2023/01/10 08:13:18;;;;;;;12.07;11.67;;;7.40;99.90;;;;;;4953792;29;20444;-76
2023/01/10 08:15:45;;;;;;;12.40;11.47;;;7.50;99.90;;;;;;4953372;29;20559;-76
2023/01/10 08:18:12;;;;;;;12.20;11.60;;;7.50;99.90;;;;;;4953367;29;20489;-76
2023/01/10 08:20:40;;;;;;;13.53;12.27;;;7.50;99.90;;;;;;4953283;29;20464;-77
2023/01/10 08:23:06;;;;;;;11.80;11.00;;;7.50;99.90;;;;;;4951521;29;20464;-77
2023/01/10 08:25:35;;;;;;;12.47;11.40;;;7.50;99.90;;;;;;4951897;29;20460;-76
2023/01/10 08:28:01;;;;;;;12.50;11.80;;;7.60;99.90;;;;;;4952944;29;20536;-80
2023/01/10 08:30:28;;;;;;;13.00;12.10;;;7.60;99.90;;;;;;4952228;29;20463;-75
2023/01/10 08:36:16;;;;;;;14.10;12.90;;;7.70;99.90;;;;;;4945919;29;20441;-83
2023/01/10 08:38:43;;;;;;;13.13;12.20;;;7.70;99.90;;;;;;4951048;29;20575;-82
2023/01/10 08:41:12;;;;;;;13.70;12.70;;;7.60;99.90;;;;;;4953088;29;20449;-84
2023/01/10 08:43:39;;;;;;;12.63;11.47;;;7.50;99.90;;;;;;4952895;29;21030;-84
2023/01/10 08:46:06;;;;;;;13.10;12.23;;;7.50;99.90;;;;;;4953616;29;20761;-84
2023/01/10 08:48:33;;;;;;;12.03;11.20;;;7.60;99.90;;;;;;4953094;29;20448;-83
2023/01/10 08:51:05;;;;;;;13.07;12.10;;;7.50;99.90;;;;;;4952592;29;20965;-84
2023/01/10 08:53:32;;;;;;;12.17;11.40;;;7.70;99.90;;;;;;4952355;29;20508;-82
2023/01/10 08:55:58;;;;;;;12.67;12.07;;;7.80;99.90;;;;;;4952263;29;20865;-83
2023/01/10 08:58:26;;;;;;;13.33;12.43;;;7.80;99.90;;;;;;4952161;29;20496;-83
2023/01/10 09:00:53;;;;;;;13.47;12.50;;;7.70;99.90;;;;;;4952364;29;20457;-81
2023/01/10 09:03:20;;;;;;;12.37;11.57;;;7.80;99.90;;;;;;4952687;28;20463;-82
2023/01/10 09:05:46;;;;;;;12.33;11.73;;;7.80;99.90;;;;;;4952005;29;20542;-82
2023/01/10 09:08:13;;;;;;;12.30;11.70;;;8.00;99.90;;;;;;4951920;29;20528;-82
2023/01/10 09:10:40;;;;;;;11.87;11.03;;;8.00;99.90;;;;;;4952067;29;20488;-82
2023/01/10 09:13:08;;;;;;;12.20;11.63;;;8.10;99.90;;;;;;4952417;29;20470;-83
2023/01/10 09:15:38;;;;;;;14.50;12.73;;;8.10;99.90;;;;;;4952272;29;20524;-82
2023/01/10 09:18:06;;;;;;;13.10;12.40;;;8.00;99.90;;;;;;4951957;29;21175;-83
2023/01/10 09:20:35;;;;;;;12.90;12.27;;;8.00;99.90;;;;;;4952062;29;20453;-83
2023/01/10 09:23:05;;;;;;;12.93;12.30;;;8.10;99.90;;;;;;4951980;29;20460;-82
2023/01/10 09:25:32;;;;;;;12.87;12.07;;;8.40;99.90;;;;;;4951840;29;20455;-82
2023/01/10 09:28:00;;;;;;;12.90;12.00;;;8.30;99.90;;;;;;4951793;29;20663;-82
2023/01/10 09:30:28;;;;;;;13.07;12.37;;;8.00;99.90;;;;;;4951614;29;20444;-81
2023/01/10 09:32:57;;;;;;;12.70;11.90;;;7.80;99.90;;;;;;4951768;29;20886;-81
2023/01/10 09:35:25;;;;;;;13.30;12.50;;;7.60;99.90;;;;;;4951383;29;20452;-82
2023/01/10 09:37:54;;;;;;;13.30;12.50;;;7.70;99.90;;;;;;4951740;29;20495;-81
2023/01/10 09:40:30;;;;;;;12.93;11.90;;;7.70;99.90;;;;;;4951686;29;20468;-81
2023/01/10 09:43:07;;;;;;;13.47;12.70;;;7.80;99.90;;;;;;4951472;29;20654;-81
2023/01/10 09:45:40;;;;;;;13.60;12.57;;;7.60;99.90;;;;;;4951713;29;20460;-81
2023/01/10 09:48:15;;;;;;;16.80;15.77;;;7.30;99.90;;;;;;4951630;29;20456;-81
2023/01/10 09:50:51;;;;;;;15.53;14.73;;;7.20;99.90;;;;;;4951251;29;20646;-82
2023/01/10 09:53:21;;;;;;;14.47;13.60;;;7.10;99.90;;;;;;4951719;29;20452;-82
2023/01/10 09:55:52;;;;;;;15.67;14.40;;;7.00;99.90;;;;;;4951166;29;20488;-82
2023/01/10 09:58:22;;;;;;;16.03;14.57;;;7.00;99.90;;;;;;4951543;29;20492;-82
2023/01/10 10:00:53;;;;;;;14.43;13.37;;;7.00;99.90;;;;;;4951362;29;20801;-81
2023/01/10 10:03:28;;;;;;;15.23;13.83;;;7.10;99.90;;;;;;4951501;29;20460;-83
2023/01/10 10:05:55;;;;;;;13.47;12.53;;;7.20;99.90;;;;;;4951322;29;20467;-82
2023/01/10 10:08:21;;;;;;;13.87;12.77;;;7.30;99.90;;;;;;4951349;29;20487;-81
2023/01/10 10:11:00;;;;;;;16.53;15.40;;;7.40;99.90;;;;;;4951336;29;20926;-82
2023/01/10 10:13:40;;;;;;;17.77;16.73;;;7.40;99.90;;;;;;4951090;29;20890;-83
2023/01/10 10:16:19;;;;;;;17.03;16.33;;;7.30;99.90;;;;;;4951102;28;20546;-85
2023/01/10 10:18:58;;;;;;;16.17;15.37;;;7.30;99.90;;;;;;4951124;29;20499;-82
2023/01/10 10:21:33;;;;;;;16.80;15.63;;;7.30;99.90;;;;;;4951851;29;20479;-81
2023/01/10 10:24:15;;;;;;;16.13;15.00;;;7.40;99.90;;;;;;4950852;29;20460;-80
2023/01/10 10:26:53;;;;;;;15.23;14.53;;;7.40;99.90;;;;;;4950897;29;20465;-81
2023/01/10 10:29:59;;;;;;;14.40;13.70;;;7.50;99.90;;;;;;4951136;29;20452;-81
2023/01/10 10:32:37;;;;;;;16.07;14.40;;;7.70;99.90;;;;;;4950825;29;20467;-81
2023/01/10 10:35:12;;;;;;;14.00;13.30;;;7.70;99.90;;;;;;4951518;29;20463;-82
2023/01/10 10:37:43;;;;;;;14.03;12.93;;;7.90;99.90;;;;;;4951507;29;20520;-81
2023/01/10 10:40:19;;;;;;;13.97;12.87;;;7.80;99.90;;;;;;4951416;29;20527;-81
2023/01/10 10:42:49;;;;;;;14.40;13.60;;;7.80;99.90;;;;;;4951620;28;20558;-81
2023/01/10 10:45:20;;;;;;;14.30;13.57;;;8.00;99.90;;;;;;4951403;29;20465;-82
2023/01/10 10:48:16;;;;;;;14.20;13.30;;;8.10;99.90;;;;;;4951357;29;20468;-82
2023/01/10 10:50:51;;;;;;;14.83;13.93;;;8.20;99.90;;;;;;4949279;29;20794;-82
2023/01/10 10:53:18;;;;;;;14.80;14.00;;;8.20;99.90;;;;;;4951141;29;20460;-83
2023/01/10 10:55:45;;;;;;;17.70;16.60;;;8.00;99.90;;;;;;4950677;29;20520;-80
2023/01/10 10:58:14;;;;;;;18.50;17.60;;;7.70;99.90;;;;;;4950430;29;20496;-80
2023/01/10 11:00:41;;;;;;;17.83;16.93;;;7.70;99.90;;;;;;4950693;29;20871;-82
2023/01/10 11:03:27;;;;;;;17.07;16.33;;;8.30;99.90;;;;;;4950570;29;20448;-80
2023/01/10 11:05:55;;;;;;;17.23;16.43;;;8.40;99.90;;;;;;4950736;29;20463;-79
2023/01/10 11:08:23;;;;;;;16.40;15.20;;;8.30;99.90;;;;;;4950824;29;20467;-80
2023/01/10 11:10:54;;;;;;;14.40;13.50;;;8.40;99.90;;;;;;4950666;29;20467;-80
2023/01/10 11:13:40;;;;;;;13.93;13.10;;;8.50;99.90;;;;;;4950796;29;20832;-80
2023/01/10 11:16:08;;;;;;;13.30;12.70;;;8.30;99.90;;;;;;4950549;29;20463;-79
2023/01/10 11:18:37;;;;;;;12.87;12.27;;;8.10;99.90;;;;;;4950546;29;21021;-80
2023/01/10 11:21:09;;;;;;;14.90;13.90;;;8.00;99.90;;;;;;4950512;29;20500;-79
2023/01/10 11:23:41;;;;;;;18.13;17.10;;;8.00;99.90;;;;;;4950435;29;20974;-78
2023/01/10 11:26:10;;;;;;;19.37;18.27;;;8.00;99.90;;;;;;4950598;28;20879;-79
2023/01/10 11:28:37;;;;;;;20.20;19.00;;;7.90;99.90;;;;;;4954192;29;20955;-81
2023/01/10 11:31:04;;;;;;;18.50;17.50;;;7.90;99.90;;;;;;4954524;29;20452;-83
2023/01/10 11:33:35;;;;;;;17.87;16.87;;;8.10;99.90;;;;;;4954454;29;20450;-83
2023/01/10 11:36:04;;;;;;;17.73;16.93;;;8.00;99.90;;;;;;4953969;29;20487;-83
2023/01/10 11:38:33;;;;;;;17.23;16.27;;;8.00;99.90;;;;;;4953794;29;20491;-81
2023/01/10 11:41:01;;;;;;;17.73;16.67;;;8.20;99.90;;;;;;4953626;29;20468;-80
2023/01/10 11:43:32;;;;;;;14.50;13.67;;;8.40;99.90;;;;;;4953498;29;20456;-80
2023/01/10 11:46:02;;;;;;;13.10;12.37;;;8.50;99.90;;;;;;4953317;29;20731;-79
2023/01/10 11:48:42;;;;;;;13.07;12.13;;;8.50;99.90;;;;;;4953436;29;20532;-79
2023/01/10 11:51:18;;;;;;;12.87;11.97;;;8.60;99.90;;;;;;4953721;29;20463;-79
2023/01/10 11:53:50;;;;;;;12.10;11.60;;;8.80;99.90;;;;;;4953625;29;20455;-79
2023/01/10 11:56:30;;;;;;;11.40;10.90;;;9.00;99.90;;;;;;4952533;29;20492;-79
2023/01/10 11:58:58;;;;;;;13.40;12.40;;;9.10;99.90;;;;;;4953623;29;20496;-79
2023/01/10 12:01:28;;;;;;;11.50;11.00;;;9.40;99.90;;;;;;4952429;29;20473;-80
2023/01/10 12:03:55;;;;;;;12.97;11.90;;;9.70;99.90;;;;;;4952588;29;20804;-82
2023/01/10 12:06:22;;;;;;;12.10;11.27;;;9.50;99.90;;;;;;4952335;29;20460;-80
2023/01/10 12:08:54;;;;;;;13.30;12.33;;;9.40;99.90;;;;;;4952356;29;20449;-73
2023/01/10 12:11:26;;;;;;;11.63;11.03;;;9.20;99.90;;;;;;4952671;29;21006;-74
2023/01/10 12:13:54;;;;;;;12.57;11.97;;;9.20;99.90;;;;;;4950757;29;20460;-74
2023/01/10 12:16:23;;;;;;;12.80;11.90;;;9.40;99.90;;;;;;4951020;29;20457;-75
2023/01/10 12:18:51;;;;;;;13.17;12.20;;;9.30;99.90;;;;;;4952394;29;21010;-73
2023/01/10 12:21:23;;;;;;;13.07;12.30;;;9.40;99.90;;;;;;4952338;29;20453;-73
2023/01/10 12:23:52;;;;;;;13.13;12.27;;;9.60;99.90;;;;;;4952440;29;20556;-73
2023/01/10 12:26:19;;;;;;;13.13;12.10;;;9.80;99.90;;;;;;4952411;29;20472;-73
2023/01/10 12:28:52;;;;;;;11.73;10.90;;;10.10;99.90;;;;;;4951326;29;20449;-74
2023/01/10 12:31:21;;;;;;;13.43;12.27;;;10.70;99.90;;;;;;4952947;29;20861;-78
2023/01/10 12:33:54;;;;;;;12.00;11.50;;;10.90;99.90;;;;;;4950808;29;20456;-76
2023/01/10 12:36:32;;;;;;;12.57;11.97;;;10.90;99.90;;;;;;4952804;29;20448;-75
2023/01/10 12:39:08;;;;;;;12.23;11.30;;;10.60;99.90;;;;;;4952560;28;20484;-82
2023/01/10 12:44:32;;;;;;;11.90;11.30;;;9.90;99.90;;;;;;4954404;28;20456;-82
2023/01/10 12:47:05;;;;;;;15.20;14.00;;;9.80;99.90;;;;;;4952827;29;20551;-80
2023/01/10 12:49:34;;;;;;;12.73;11.93;;;9.70;99.90;;;;;;4953222;29;20453;-82
2023/01/10 12:52:08;;;;;;;12.73;11.80;;;9.60;99.90;;;;;;4953510;29;20457;-84
2023/01/10 12:54:36;;;;;;;12.80;12.10;;;9.80;99.90;;;;;;4952992;29;20477;-83
2023/01/10 12:57:14;;;;;;;11.67;11.17;;;10.10;99.90;;;;;;4956024;28;20500;-81
2023/01/10 12:59:45;;;;;;;12.60;11.60;;;10.20;99.90;;;;;;4939328;28;20490;-81
2023/01/10 13:02:16;;;;;;;11.33;10.77;;;10.30;99.90;;;;;;4971822;28;20460;-82
2023/01/10 13:04:45;;;;;;;15.13;11.83;;;10.40;99.90;;;;;;4962649;28;20456;-82
2023/01/10 13:07:13;;;;;;;12.57;11.97;;;10.30;99.90;;;;;;4952334;29;20456;-82
2023/01/10 13:09:42;;;;;;;12.47;11.67;;;10.00;99.90;;;;;;4952493;29;20456;-81
2023/01/10 13:12:16;;;;;;;10.37;9.90;;;10.00;99.90;;;;;;4952557;28;20453;-83
2023/01/10 13:14:49;;;;;;;11.97;11.07;;;9.80;99.90;;;;;;4972056;28;20547;-83
2023/01/10 13:17:26;;;;;;;12.57;11.77;;;9.80;99.90;;;;;;4971945;28;20459;-80
2023/01/10 13:20:19;;;;;;;11.63;10.67;;;10.00;99.90;;;;;;4972092;28;20487;-85
2023/01/10 13:22:47;;;;;;;11.70;10.80;;;10.00;99.90;;;;;;4971810;28;20455;-83
2023/01/10 13:25:22;;;;;;;12.70;11.90;;;9.90;99.90;;;;;;4971610;28;20460;-82
2023/01/10 13:27:56;;;;;;;12.30;11.70;;;9.80;99.90;;;;;;4971794;28;20466;-83
2023/01/10 13:30:29;;;;;;;13.57;12.93;;;9.50;99.90;;;;;;4962295;28;20460;-82
2023/01/10 13:33:02;;;;;;;12.27;11.37;;;9.40;99.90;;;;;;4952437;29;20445;-83
2023/01/10 13:35:39;;;;;;;12.13;11.20;;;9.30;99.90;;;;;;4951810;29;20452;-82
2023/01/10 13:38:17;;;;;;;11.50;11.00;;;9.20;99.90;;;;;;4951932;29;20824;-82
2023/01/10 13:40:57;;;;;;;11.60;11.00;;;9.20;99.90;;;;;;4951826;29;20452;-81
2023/01/10 13:43:45;;;;;;;12.20;11.60;;;9.30;99.90;;;;;;4950413;29;20456;-82
2023/01/10 13:46:50;;;;;;;12.83;11.77;;;9.40;99.90;;;;;;4951491;29;20782;-82
2023/01/10 13:49:47;;;;;;;11.73;10.97;;;9.40;99.90;;;;;;4951161;28;20480;-82
2023/01/10 13:52:37;;;;;;;11.00;10.10;;;9.50;99.90;;;;;;4952205;29;20456;-75
2023/01/10 13:55:32;;;;;;;14.60;13.43;;;9.60;99.90;;;;;;4951527;29;20847;-76
2023/01/10 13:58:02;;;;;;;11.50;10.80;;;9.70;99.90;;;;;;4951060;29;20451;-78
2023/01/10 14:03:47;;;;;;;11.33;10.53;;;9.50;99.90;;;;;;4951926;29;20424;-78
2023/01/10 14:06:19;;;;;;;11.80;11.20;;;9.50;99.90;;;;;;4951043;29;20452;-78
2023/01/10 14:08:53;;;;;;;12.53;11.70;;;9.50;99.90;;;;;;4953873;28;20474;-78
2023/01/10 14:11:21;;;;;;;11.07;10.53;;;9.50;99.90;;;;;;4956468;28;20523;-78
2023/01/10 14:13:53;;;;;;;11.50;10.30;;;9.60;99.90;;;;;;4968274;28;20451;-83
2023/01/10 14:16:35;;;;;;;11.70;10.67;;;9.50;99.90;;;;;;4967858;28;20444;-78
2023/01/10 14:19:04;;;;;;;11.50;11.00;;;9.70;99.90;;;;;;4951355;29;20496;-79
2023/01/10 14:21:36;;;;;;;11.27;10.60;;;9.90;99.90;;;;;;4951001;29;20461;-80
2023/01/10 14:24:04;;;;;;;11.33;10.70;;;10.00;99.90;;;;;;4951314;29;20452;-80
2023/01/10 14:26:34;;;;;;;11.73;11.20;;;10.10;99.90;;;;;;4967424;28;20456;-80
2023/01/10 14:29:07;;;;;;;11.10;10.40;;;10.00;99.90;;;;;;4970026;28;20451;-78
2023/01/10 14:31:37;;;;;;;10.80;10.30;;;10.00;99.90;;;;;;4949999;28;20441;-79
2023/01/10 14:34:08;;;;;;;10.80;10.10;;;10.10;99.40;;;;;;4940235;29;20445;-79
2023/01/10 14:36:49;;;;;;;11.27;10.87;;;9.70;99.90;;;;;;4944680;29;20453;-79
2023/01/10 14:39:16;;;;;;;12.13;11.43;;;9.40;99.90;;;;;;4949907;29;20492;-78
2023/01/10 14:41:45;;;;;;;11.50;10.90;;;9.20;99.90;;;;;;4934113;28;20849;-78
2023/01/10 14:44:18;;;;;;;12.00;11.20;;;9.20;99.90;;;;;;4969910;28;20455;-79
2023/01/10 14:46:47;;;;;;;16.27;14.10;;;9.20;99.90;;;;;;4970007;28;20455;-78
2023/01/10 14:49:23;;;;;;;11.23;10.53;;;9.00;99.90;;;;;;4957361;28;20453;-78
2023/01/10 14:51:50;;;;;;;12.77;11.67;;;8.80;99.90;;;;;;4950381;29;20467;-79
2023/01/10 14:54:19;;;;;;;11.57;10.87;;;8.60;99.90;;;;;;4950376;29;20512;-78
2023/01/10 14:56:47;;;;;;;11.10;10.60;;;8.60;99.90;;;;;;4950728;29;20491;-78
2023/01/10 14:59:35;;;;;;;12.60;11.80;;;8.50;99.90;;;;;;4950562;29;20492;-78
2023/01/10 15:02:12;;;;;;;12.57;11.67;;;8.40;99.90;;;;;;4953518;28;20822;-77